createdAt,value
2023-04-04T00:07:10.088Z,100408.67
2023-04-04T00:17:14.345Z,100404.34
2023-04-04T00:27:20.150Z,100395.21
2023-04-04T00:37:24.312Z,100392.77
2023-04-04T00:47:32.924Z,100375.98
2023-04-04T00:57:39.096Z,100370.45
2023-04-04T01:07:44.998Z,100366.77
2023-04-04T01:17:52.013Z,100357.29
2023-04-04T01:27:57.680Z,100352.27
2023-04-04T01:38:15.931Z,100343.52
2023-04-04T01:48:22.481Z,100347.92
2023-04-04T01:58:28.169Z,100351.11
2023-04-04T02:08:34.040Z,100339.60
2023-04-04T02:18:40.505Z,100340.77
2023-04-04T02:28:46.415Z,100339.73
2023-04-04T02:38:52.212Z,100332.34
2023-04-04T02:48:57.824Z,100337.75
2023-04-04T02:59:03.779Z,100334.47
2023-04-04T03:09:09.499Z,100337.04
2023-04-04T03:19:15.153Z,100339.55
2023-04-04T03:29:21.110Z,100344.64
2023-04-04T03:39:30.866Z,100343.15
2023-04-04T03:49:36.758Z,100337.41
2023-04-04T03:59:42.600Z,100338.71
2023-04-04T04:09:48.391Z,100333.39
2023-04-04T04:19:54.360Z,100332.21
2023-04-04T04:30:00.479Z,100338.80
2023-04-04T04:40:08.732Z,100330.11
2023-04-04T04:50:16.537Z,100332.09
2023-04-04T05:00:23.567Z,100339.71
2023-04-04T05:10:30.112Z,100337.05
2023-04-04T05:20:36.302Z,100335.64
2023-04-04T05:30:42.408Z,100323.36
2023-04-04T05:40:48.450Z,100313.22
2023-04-04T05:50:54.233Z,100298.47
2023-04-04T06:00:59.984Z,100289.52
2023-04-04T06:11:05.752Z,100285.38
2023-04-04T06:21:11.430Z,100293.51
2023-04-04T06:31:17.278Z,100299.66
2023-04-04T06:41:23.167Z,100297.67
2023-04-04T06:51:29.315Z,100303.13
2023-04-04T07:01:38.308Z,100295.02
2023-04-04T07:11:47.097Z,100301.23
2023-04-04T07:21:53.650Z,100293.85
2023-04-04T07:31:59.440Z,100289.89
2023-04-04T07:42:07.840Z,100294.14
2023-04-04T07:52:13.588Z,100294.52
2023-04-04T08:02:19.718Z,100292.93
2023-04-04T08:12:30.246Z,100286.27
2023-04-04T08:22:37.248Z,100279.24
2023-04-04T08:32:44.583Z,100272.08
2023-04-04T08:42:53.691Z,100265.86
2023-04-04T08:53:03.116Z,100265.36
2023-04-04T09:03:16.402Z,100267.08
2023-04-04T09:13:22.982Z,100266.21
2023-04-04T09:23:28.986Z,100269.33
2023-04-04T09:33:35.854Z,100270.95
2023-04-04T09:43:41.881Z,100274.00
2023-04-04T09:53:50.212Z,100272.34
2023-04-04T10:03:59.377Z,100276.55
2023-04-04T10:14:08.483Z,100275.02
2023-04-04T10:24:14.301Z,100270.31
2023-04-04T10:34:26.861Z,100264.86
2023-04-04T10:44:35.284Z,100263.16
2023-04-04T10:54:42.392Z,100261.48
2023-04-04T11:04:48.135Z,100259.01
2023-04-04T11:15:11.846Z,100253.79
2023-04-04T11:25:39.972Z,100248.45
2023-04-04T11:35:52.761Z,100242.23
2023-04-04T11:46:11.376Z,100236.05
2023-04-04T11:56:20.883Z,100226.70
2023-04-04T12:06:27.286Z,100220.34
2023-04-04T12:16:33.313Z,100216.23
2023-04-04T12:26:41.335Z,100217.95
2023-04-04T12:36:49.911Z,100217.16
2023-04-04T12:46:57.684Z,100208.73
2023-04-04T12:57:05.792Z,100201.29
2023-04-04T13:07:25.876Z,100206.83
2023-04-04T13:17:45.091Z,100195.92
2023-04-04T13:27:50.821Z,100189.63
2023-04-04T13:37:57.253Z,100191.27
2023-04-04T13:48:04.220Z,100193.19
2023-04-04T13:58:10.175Z,100185.30
2023-04-04T14:08:16.095Z,100178.42
2023-04-04T14:18:22.303Z,100171.20
2023-04-04T14:28:28.303Z,100174.13
2023-04-04T14:38:34.502Z,100171.77
2023-04-04T14:48:40.447Z,100165.09
2023-04-04T14:58:46.490Z,100167.05
2023-04-04T15:08:52.221Z,100169.91
2023-04-04T15:18:58.116Z,100162.28
2023-04-04T15:29:04.892Z,100152.92
2023-04-04T15:39:11.519Z,100158.44
2023-04-04T15:49:17.501Z,100158.60
2023-04-04T15:59:23.539Z,100163.66
2023-04-04T16:09:29.524Z,100155.95
2023-04-04T16:19:36.964Z,100145.15
2023-04-04T16:29:46.384Z,100138.31
2023-04-04T16:39:52.569Z,100137.40
2023-04-04T16:49:58.772Z,100139.82
2023-04-04T17:00:06.600Z,100140.17
2023-04-04T17:10:14.541Z,100136.44
2023-04-04T17:20:20.897Z,100134.06
2023-04-04T17:30:26.720Z,100125.08
2023-04-04T17:40:46.978Z,100128.50
2023-04-04T17:50:53.775Z,100135.06
2023-04-04T18:00:59.707Z,100141.13
2023-04-04T18:11:06.350Z,100136.88
2023-04-04T18:21:12.176Z,100144.25
2023-04-04T18:31:18.295Z,100150.60
2023-04-04T18:41:24.278Z,100152.39
2023-04-04T18:51:29.970Z,100157.38
2023-04-04T19:01:36.217Z,100159.46
2023-04-04T19:11:43.542Z,100158.77
2023-04-04T19:21:49.270Z,100160.64
2023-04-04T19:31:56.867Z,100159.80
2023-04-04T19:42:06.662Z,100155.34
2023-04-04T19:52:13.346Z,100156.71
2023-04-04T20:03:00.594Z,100155.52
2023-04-04T20:13:07.972Z,100152.77
2023-04-04T20:23:15.208Z,100151.73
2023-04-04T20:33:36.896Z,100149.17
2023-04-04T20:43:45.699Z,100138.70
2023-04-04T20:53:51.880Z,100132.66
2023-04-04T21:03:59.662Z,100132.95
2023-04-04T21:14:06.546Z,100133.10
2023-04-04T21:24:13.148Z,100135.95
2023-04-04T21:34:21.198Z,100131.56
2023-04-04T21:44:27.612Z,100133.02
2023-04-04T21:54:33.551Z,100130.35
2023-04-04T22:04:39.271Z,100124.66
2023-04-04T22:14:45.811Z,100126.69
2023-04-04T22:24:51.149Z,100127.93
2023-04-04T22:34:57.651Z,100126.63
2023-04-04T22:45:03.482Z,100118.35
2023-04-04T22:55:10.361Z,100115.52
2023-04-04T23:05:17.811Z,100106.85
2023-04-04T23:15:23.562Z,100096.15
2023-04-04T23:25:28.065Z,100079.09
2023-04-04T23:35:33.928Z,100076.70
2023-04-04T23:45:40.879Z,100082.46
2023-04-04T23:55:46.562Z,100080.02
